createdAt,value
2022-12-06T00:01:50.043Z,13.73
2022-12-06T00:04:16.931Z,12.07
2022-12-06T00:06:47.604Z,11.63
2022-12-06T00:09:28.816Z,12.27
2022-12-06T00:11:58.456Z,12.13
2022-12-06T00:14:25.939Z,12.77
2022-12-06T00:16:52.684Z,11.30
2022-12-06T00:19:22.528Z,12.57
2022-12-06T00:21:49.177Z,12.70
2022-12-06T00:24:22.992Z,13.00
2022-12-06T00:26:50.555Z,12.30
2022-12-06T00:29:20.571Z,11.97
2022-12-06T00:31:47.984Z,11.43
2022-12-06T00:34:14.888Z,12.00
2022-12-06T00:36:42.354Z,11.50
2022-12-06T00:39:14.451Z,11.33
2022-12-06T00:41:41.904Z,12.73
2022-12-06T00:44:08.940Z,12.17
2022-12-06T00:46:36.324Z,11.53
2022-12-06T00:49:04.984Z,11.77
2022-12-06T00:51:33.275Z,10.30
2022-12-06T00:53:59.945Z,10.00
2022-12-06T00:56:27.045Z,10.90
2022-12-06T00:58:53.934Z,10.60
2022-12-06T01:01:26.096Z,10.63
2022-12-06T01:03:57.991Z,9.37
2022-12-06T01:06:28.153Z,9.40
2022-12-06T01:09:00.331Z,10.03
2022-12-06T01:11:27.584Z,9.77
2022-12-06T01:13:54.931Z,9.90
2022-12-06T01:16:23.918Z,10.27
2022-12-06T01:18:57.227Z,9.20
2022-12-06T01:21:24.482Z,8.57
2022-12-06T01:23:51.149Z,9.20
2022-12-06T01:26:45.083Z,9.40
2022-12-06T01:29:11.976Z,8.80
2022-12-06T01:31:39.704Z,8.10
2022-12-06T01:34:15.035Z,8.90
2022-12-06T01:36:41.699Z,8.97
2022-12-06T01:39:10.611Z,9.40
2022-12-06T01:41:38.133Z,9.37
2022-12-06T01:44:05.509Z,9.13
2022-12-06T01:46:50.361Z,9.50
2022-12-06T01:49:20.096Z,9.10
2022-12-06T01:51:54.982Z,9.73
2022-12-06T01:54:23.494Z,9.50
2022-12-06T01:56:51.539Z,9.60
2022-12-06T01:59:18.979Z,9.10
2022-12-06T02:01:46.216Z,9.93
2022-12-06T02:04:13.227Z,9.60
2022-12-06T02:06:40.700Z,9.20
2022-12-06T02:09:08.572Z,9.73
2022-12-06T02:11:35.913Z,9.80
2022-12-06T02:14:11.845Z,9.27
2022-12-06T02:17:03.205Z,8.90
2022-12-06T02:19:35.820Z,9.00
2022-12-06T02:22:17.563Z,8.50
2022-12-06T02:24:59.225Z,9.50
2022-12-06T02:27:44.239Z,8.57
2022-12-06T02:30:28.678Z,7.53
2022-12-06T02:33:00.207Z,8.50
2022-12-06T02:35:34.540Z,7.33
2022-12-06T02:38:16.194Z,7.70
2022-12-06T02:40:49.209Z,7.60
2022-12-06T02:43:22.244Z,7.20
2022-12-06T02:45:53.059Z,8.07
2022-12-06T02:48:21.175Z,7.57
2022-12-06T02:50:53.857Z,7.67
2022-12-06T02:53:22.468Z,7.80
2022-12-06T02:55:50.262Z,7.00
2022-12-06T02:58:16.802Z,7.00
2022-12-06T03:00:49.936Z,7.20
2022-12-06T03:03:25.687Z,7.20
2022-12-06T03:06:01.169Z,7.53
2022-12-06T03:08:52.215Z,7.67
2022-12-06T03:11:18.858Z,7.23
2022-12-06T03:13:56.023Z,7.03
2022-12-06T03:16:28.718Z,7.23
2022-12-06T03:19:18.970Z,7.17
2022-12-06T03:21:54.549Z,6.70
2022-12-06T03:24:22.541Z,6.43
2022-12-06T03:26:51.051Z,6.97
2022-12-06T03:29:19.743Z,7.70
2022-12-06T03:31:48.094Z,7.03
2022-12-06T03:34:19.316Z,6.73
2022-12-06T03:36:47.982Z,7.40
2022-12-06T03:39:17.299Z,6.93
2022-12-06T03:41:48.543Z,6.47
2022-12-06T03:44:15.138Z,5.73
2022-12-06T03:46:47.515Z,5.80
2022-12-06T03:49:36.407Z,6.03
2022-12-06T03:52:04.002Z,5.97
2022-12-06T03:54:30.707Z,6.40
2022-12-06T03:56:57.328Z,6.77
2022-12-06T03:59:23.916Z,7.43
2022-12-06T04:01:50.567Z,7.60
2022-12-06T04:04:17.388Z,7.33
2022-12-06T04:06:44.060Z,7.53
2022-12-06T04:09:28.978Z,7.37
2022-12-06T04:11:55.531Z,7.10
2022-12-06T04:14:22.183Z,7.47
2022-12-06T04:17:07.383Z,7.70
2022-12-06T04:19:33.993Z,7.23
2022-12-06T04:22:19.179Z,8.40
2022-12-06T04:24:45.820Z,7.90
2022-12-06T04:27:30.998Z,7.43
2022-12-06T04:30:16.090Z,7.20
2022-12-06T04:33:01.616Z,7.50
2022-12-06T04:35:46.886Z,7.20
2022-12-06T04:38:32.050Z,7.37
2022-12-06T04:40:58.653Z,7.57
2022-12-06T04:43:43.523Z,7.47
2022-12-06T04:46:15.545Z,7.00
2022-12-06T04:48:42.555Z,7.40
2022-12-06T04:51:12.830Z,6.50
2022-12-06T04:53:39.437Z,6.10
2022-12-06T04:56:06.181Z,6.77
2022-12-06T04:58:32.845Z,6.60
2022-12-06T05:00:59.441Z,7.43
2022-12-06T05:03:26.275Z,6.67
2022-12-06T05:05:52.931Z,6.63
2022-12-06T05:08:19.610Z,6.87
2022-12-06T05:10:50.372Z,7.37
2022-12-06T05:13:18.138Z,7.37
2022-12-06T05:15:57.881Z,6.50
2022-12-06T05:18:25.298Z,7.13
2022-12-06T05:20:52.035Z,8.67
2022-12-06T05:23:18.725Z,7.97
2022-12-06T05:25:45.365Z,8.60
2022-12-06T05:28:11.964Z,9.43
2022-12-06T05:30:38.535Z,8.50
2022-12-06T05:33:05.132Z,8.20
2022-12-06T05:35:31.771Z,8.20
2022-12-06T05:37:58.335Z,9.10
2022-12-06T05:40:24.944Z,8.00
2022-12-06T05:42:51.558Z,8.27
2022-12-06T05:45:18.471Z,8.30
2022-12-06T05:47:45.105Z,8.20
2022-12-06T05:50:11.907Z,8.40
2022-12-06T05:52:38.468Z,7.80
2022-12-06T05:55:05.276Z,8.63
2022-12-06T05:57:31.931Z,8.93
2022-12-06T05:59:58.920Z,7.90
2022-12-06T06:02:25.836Z,8.30
2022-12-06T06:04:53.299Z,8.33
2022-12-06T06:07:19.878Z,8.60
2022-12-06T06:09:46.492Z,8.70
2022-12-06T06:12:13.960Z,7.17
2022-12-06T06:14:40.524Z,8.77
2022-12-06T06:17:07.348Z,8.30
2022-12-06T06:19:34.005Z,8.80
2022-12-06T06:22:00.595Z,9.20
2022-12-06T06:24:27.217Z,8.93
2022-12-06T06:26:54.144Z,8.20
2022-12-06T06:29:20.811Z,9.27
2022-12-06T06:31:47.522Z,11.70
2022-12-06T06:34:14.195Z,10.43
2022-12-06T06:36:45.490Z,11.00
2022-12-06T06:39:12.732Z,10.37
2022-12-06T06:41:39.385Z,11.27
2022-12-06T06:44:06.040Z,10.83
2022-12-06T06:46:32.825Z,9.50
2022-12-06T06:48:59.462Z,10.40
2022-12-06T06:51:26.077Z,12.00
2022-12-06T06:53:52.673Z,11.73
2022-12-06T06:56:20.243Z,11.27
2022-12-06T06:58:47.116Z,11.83
2022-12-06T07:01:23.678Z,12.80
2022-12-06T07:03:51.805Z,14.00
2022-12-06T07:06:18.488Z,12.23
2022-12-06T07:08:46.583Z,14.20
2022-12-06T07:11:15.031Z,13.37
2022-12-06T07:13:45.732Z,14.20
2022-12-06T07:16:16.891Z,14.00
2022-12-06T07:18:43.740Z,13.33
2022-12-06T07:21:12.514Z,12.40
2022-12-06T07:23:39.191Z,12.87
2022-12-06T07:26:17.021Z,11.57
2022-12-06T07:28:45.198Z,13.10
2022-12-06T07:31:16.050Z,14.93
2022-12-06T07:33:42.927Z,12.80
2022-12-06T07:36:12.461Z,14.17
2022-12-06T07:38:40.220Z,12.13
2022-12-06T07:41:44.282Z,12.43
2022-12-06T07:44:38.275Z,12.57
2022-12-06T07:47:04.904Z,11.70
2022-12-06T07:49:31.688Z,11.57
2022-12-06T07:51:58.454Z,11.00
2022-12-06T07:54:25.580Z,11.43
2022-12-06T07:56:52.317Z,10.60
2022-12-06T07:59:18.962Z,10.50
2022-12-06T08:01:45.751Z,10.70
2022-12-06T08:04:12.607Z,10.90
2022-12-06T08:06:39.375Z,11.33
2022-12-06T08:09:06.930Z,12.70
2022-12-06T08:11:34.139Z,11.70
2022-12-06T08:14:00.930Z,11.73
2022-12-06T08:16:27.648Z,11.17
2022-12-06T08:18:56.165Z,12.10
2022-12-06T08:21:23.050Z,12.03
2022-12-06T08:23:49.669Z,13.67
2022-12-06T08:26:16.443Z,13.17
2022-12-06T08:28:43.526Z,12.73
2022-12-06T08:31:21.149Z,11.30
2022-12-06T08:33:48.035Z,11.40
2022-12-06T08:36:17.439Z,11.30
2022-12-06T08:38:44.406Z,11.87
2022-12-06T08:41:30.223Z,11.27
2022-12-06T08:43:58.645Z,11.33
2022-12-06T08:46:25.473Z,9.67
2022-12-06T08:48:52.083Z,9.87
2022-12-06T08:51:18.760Z,9.63
2022-12-06T08:53:45.532Z,9.60
2022-12-06T08:56:12.146Z,9.83
2022-12-06T08:58:38.849Z,9.40
2022-12-06T09:01:17.167Z,9.43
2022-12-06T09:03:44.310Z,9.17
2022-12-06T09:06:11.378Z,8.60
2022-12-06T09:08:38.659Z,10.00
2022-12-06T09:11:06.354Z,9.17
2022-12-06T09:13:33.871Z,10.17
2022-12-06T09:16:01.619Z,10.23
2022-12-06T09:18:29.323Z,9.70
2022-12-06T09:20:56.089Z,9.70
2022-12-06T09:23:22.809Z,10.20
2022-12-06T09:25:49.444Z,10.50
2022-12-06T09:28:16.127Z,9.27
2022-12-06T09:30:42.833Z,8.90
2022-12-06T09:33:09.555Z,9.73
2022-12-06T09:35:36.410Z,8.90
2022-12-06T09:38:03.814Z,9.63
2022-12-06T09:40:41.263Z,8.67
2022-12-06T09:43:19.113Z,10.40
2022-12-06T09:45:51.891Z,10.23
2022-12-06T09:48:49.217Z,10.60
2022-12-06T09:51:44.690Z,10.00
2022-12-06T09:54:15.008Z,9.60
2022-12-06T09:56:41.585Z,10.30
2022-12-06T09:59:39.198Z,9.80
2022-12-06T10:02:08.517Z,9.50
2022-12-06T10:05:01.607Z,11.20
2022-12-06T10:07:34.360Z,10.40
2022-12-06T10:10:01.279Z,10.77
2022-12-06T10:12:58.616Z,10.50
2022-12-06T10:15:50.201Z,10.00
2022-12-06T10:18:44.523Z,10.10
2022-12-06T10:21:29.147Z,10.60
2022-12-06T10:24:01.880Z,10.07
2022-12-06T10:26:59.284Z,10.47
2022-12-06T10:29:49.726Z,9.87
2022-12-06T10:32:26.674Z,9.80
2022-12-06T10:34:58.575Z,9.67
2022-12-06T10:37:59.386Z,8.90
2022-12-06T10:40:31.162Z,9.80
2022-12-06T10:43:14.539Z,8.30
2022-12-06T10:46:08.422Z,9.73
2022-12-06T10:48:41.888Z,10.73
2022-12-06T10:51:13.915Z,9.27
2022-12-06T10:53:46.174Z,9.47
2022-12-06T10:56:20.150Z,8.80
2022-12-06T10:58:53.458Z,8.83
2022-12-06T11:01:23.736Z,8.40
2022-12-06T11:03:58.730Z,11.67
2022-12-06T11:06:35.491Z,10.23
2022-12-06T11:09:21.160Z,10.70
2022-12-06T11:11:49.410Z,10.53
2022-12-06T11:14:26.125Z,13.60
2022-12-06T11:17:17.108Z,15.27
2022-12-06T11:19:45.880Z,19.80
2022-12-06T11:22:28.247Z,10.10
2022-12-06T11:25:01.078Z,23.73
2022-12-06T11:27:41.089Z,9.57
2022-12-06T11:30:20.222Z,10.47
2022-12-06T11:32:50.026Z,10.70
2022-12-06T11:35:24.228Z,10.33
2022-12-06T11:37:56.832Z,10.30
2022-12-06T11:40:26.899Z,9.70
2022-12-06T11:42:54.054Z,9.93
2022-12-06T11:45:29.172Z,10.10
2022-12-06T11:47:57.332Z,9.40
2022-12-06T11:50:24.961Z,9.43
2022-12-06T11:53:02.822Z,9.23
2022-12-06T11:55:37.383Z,9.53
2022-12-06T11:58:12.055Z,9.03
2022-12-06T12:00:56.157Z,9.47
2022-12-06T12:03:37.891Z,9.80
2022-12-06T12:06:26.359Z,8.10
2022-12-06T12:08:59.941Z,8.17
2022-12-06T12:11:29.748Z,8.50
2022-12-06T12:14:01.050Z,9.77
2022-12-06T12:16:36.697Z,7.83
2022-12-06T12:19:25.948Z,10.10
2022-12-06T12:21:59.746Z,8.20
2022-12-06T12:28:22.031Z,9.50
2022-12-06T12:30:54.231Z,7.83
2022-12-06T12:33:22.983Z,8.27
2022-12-06T12:35:55.287Z,8.47
2022-12-06T12:38:34.062Z,9.40
2022-12-06T12:41:21.693Z,11.73
2022-12-06T12:47:23.861Z,10.60
2022-12-06T12:50:04.203Z,9.70
2022-12-06T12:52:39.691Z,10.00
2022-12-06T12:55:12.469Z,10.60
2022-12-06T12:57:40.198Z,10.60
2022-12-06T13:00:10.469Z,11.07
2022-12-06T13:02:37.211Z,10.17
2022-12-06T13:05:32.469Z,9.90
2022-12-06T13:08:08.290Z,10.93
2022-12-06T13:10:37.450Z,10.13
2022-12-06T13:13:06.765Z,10.87
2022-12-06T13:15:48.025Z,10.80
2022-12-06T13:18:30.442Z,10.83
2022-12-06T13:20:58.881Z,10.90
2022-12-06T13:23:31.308Z,11.23
2022-12-06T13:26:18.624Z,9.77
2022-12-06T13:28:48.539Z,9.90
2022-12-06T13:31:18.682Z,10.13
2022-12-06T13:33:48.550Z,10.23
2022-12-06T13:36:15.588Z,9.47
2022-12-06T13:38:42.899Z,9.87
2022-12-06T13:41:13.466Z,9.37
2022-12-06T13:43:40.365Z,8.60
2022-12-06T13:46:07.332Z,9.03
2022-12-06T13:48:33.960Z,7.83
2022-12-06T13:51:12.523Z,7.67
2022-12-06T13:54:17.734Z,7.90
2022-12-06T13:56:44.697Z,7.40
2022-12-06T13:59:11.377Z,7.70
2022-12-06T14:01:46.870Z,7.97
2022-12-06T14:09:42.927Z,6.77
2022-12-06T14:12:29.158Z,7.90
2022-12-06T14:15:01.351Z,14.00
2022-12-06T14:20:29.705Z,5.20
2022-12-06T14:22:56.795Z,4.20
2022-12-06T14:25:50.075Z,4.67
2022-12-06T14:28:26.468Z,4.37
2022-12-06T14:31:29.209Z,4.00
2022-12-06T14:37:22.405Z,5.90
2022-12-06T14:40:55.010Z,4.80
2022-12-06T14:43:23.983Z,4.53
2022-12-06T14:45:51.096Z,4.90
2022-12-06T14:48:18.373Z,42.20
2022-12-06T14:50:52.177Z,13.90
2022-12-06T14:53:35.088Z,8.30
2022-12-06T14:56:25.262Z,17.40
2022-12-06T14:59:02.512Z,20.37
2022-12-06T15:01:50.047Z,12.13
2022-12-06T15:04:43.244Z,22.20
2022-12-06T15:07:31.110Z,21.30
2022-12-06T15:10:09.203Z,13.73
2022-12-06T15:12:55.303Z,23.80
2022-12-06T15:16:09.774Z,40.07
2022-12-06T15:18:57.188Z,13.53
2022-12-06T15:21:23.895Z,8.90
2022-12-06T15:23:54.738Z,4.87
2022-12-06T15:26:27.715Z,6.80
2022-12-06T15:28:54.938Z,7.90
2022-12-06T15:31:30.232Z,9.17
2022-12-06T15:34:00.999Z,5.20
2022-12-06T15:36:37.184Z,6.23
2022-12-06T15:39:19.664Z,4.67
2022-12-06T15:41:50.321Z,4.83
2022-12-06T15:44:24.901Z,4.90
2022-12-06T15:47:05.246Z,6.30
2022-12-06T15:49:52.455Z,5.07
2022-12-06T15:52:23.357Z,4.60
2022-12-06T15:54:50.562Z,5.17
2022-12-06T15:57:17.309Z,5.50
2022-12-06T16:00:11.581Z,4.10
2022-12-06T16:02:41.428Z,4.10
2022-12-06T16:05:19.129Z,4.33
2022-12-06T16:07:45.896Z,3.40
2022-12-06T16:10:14.596Z,4.57
2022-12-06T16:13:10.592Z,4.00
2022-12-06T16:15:37.224Z,4.40
2022-12-06T16:18:06.858Z,3.77
2022-12-06T16:20:33.843Z,3.73
2022-12-06T16:23:49.394Z,3.97
2022-12-06T16:26:20.125Z,3.83
2022-12-06T16:29:57.519Z,5.07
2022-12-06T16:33:09.230Z,5.87
2022-12-06T16:36:27.574Z,7.10
2022-12-06T16:50:49.698Z,5.43
2022-12-06T16:53:28.602Z,19.83
2022-12-06T17:03:50.336Z,6.73
2022-12-06T17:06:25.661Z,6.53
2022-12-06T17:09:02.791Z,6.50
2022-12-06T17:12:36.801Z,6.73
2022-12-06T17:15:56.782Z,7.73
2022-12-06T17:18:23.640Z,7.20
2022-12-06T17:20:50.311Z,7.73
2022-12-06T17:23:16.933Z,7.47
2022-12-06T17:25:43.582Z,8.50
2022-12-06T17:28:10.166Z,8.63
2022-12-06T17:30:49.316Z,8.80
2022-12-06T17:33:17.619Z,8.20
2022-12-06T17:35:44.319Z,8.90
2022-12-06T17:38:11.710Z,9.50
2022-12-06T17:40:38.545Z,9.83
2022-12-06T17:43:08.070Z,9.27
2022-12-06T17:45:35.515Z,9.20
2022-12-06T17:48:13.905Z,9.37
2022-12-06T17:50:40.554Z,9.40
2022-12-06T17:53:16.452Z,8.40
2022-12-06T17:55:43.602Z,8.53
2022-12-06T17:58:10.677Z,8.87
2022-12-06T18:00:37.652Z,9.57
2022-12-06T18:03:09.037Z,8.60
2022-12-06T18:05:40.958Z,8.60
2022-12-06T18:08:07.748Z,9.33
2022-12-06T18:10:37.642Z,9.70
2022-12-06T18:13:07.805Z,9.50
2022-12-06T18:15:54.012Z,8.17
2022-12-06T18:18:22.386Z,10.03
2022-12-06T18:20:50.971Z,11.67
2022-12-06T18:23:21.279Z,10.80
2022-12-06T18:25:49.127Z,9.97
2022-12-06T18:28:18.816Z,9.50
2022-12-06T18:31:43.202Z,9.20
2022-12-06T18:34:46.725Z,9.20
2022-12-06T18:37:19.205Z,10.17
2022-12-06T18:39:45.931Z,10.90
2022-12-06T18:42:14.893Z,10.27
2022-12-06T18:44:47.591Z,10.20
2022-12-06T18:47:14.656Z,10.13
2022-12-06T18:49:43.678Z,10.00
2022-12-06T18:52:12.657Z,11.80
2022-12-06T18:54:44.694Z,11.50
2022-12-06T18:57:19.543Z,12.10
2022-12-06T18:59:46.231Z,13.00
2022-12-06T19:02:15.415Z,15.87
2022-12-06T19:04:51.315Z,14.53
2022-12-06T19:07:21.990Z,14.47
2022-12-06T19:09:51.693Z,14.20
2022-12-06T19:12:18.340Z,12.83
2022-12-06T19:14:47.513Z,12.80
2022-12-06T19:17:21.667Z,13.10
2022-12-06T19:19:48.629Z,12.50
2022-12-06T19:22:18.502Z,14.00
2022-12-06T19:24:47.930Z,12.77
2022-12-06T19:27:20.632Z,12.17
2022-12-06T19:29:48.544Z,11.87
2022-12-06T19:32:40.659Z,11.40
2022-12-06T19:35:09.788Z,12.30
2022-12-06T19:37:39.446Z,12.00
2022-12-06T19:40:15.330Z,13.30
2022-12-06T19:43:06.300Z,12.83
2022-12-06T19:45:42.083Z,11.80
2022-12-06T19:48:11.808Z,12.40
2022-12-06T19:50:38.440Z,12.30
2022-12-06T19:53:36.957Z,11.93
2022-12-06T19:56:05.421Z,11.73
2022-12-06T19:58:33.039Z,12.93
2022-12-06T20:01:08.792Z,11.17
2022-12-06T20:03:36.223Z,11.83
2022-12-06T20:06:05.187Z,11.77
2022-12-06T20:08:37.773Z,11.20
2022-12-06T20:11:07.342Z,11.37
2022-12-06T20:13:35.122Z,11.80
2022-12-06T20:16:07.108Z,11.60
2022-12-06T20:18:33.923Z,11.67
2022-12-06T20:21:12.428Z,12.17
2022-12-06T20:23:39.329Z,11.97
2022-12-06T20:26:06.304Z,11.73
2022-12-06T20:28:33.387Z,12.70
2022-12-06T20:31:09.142Z,11.00
2022-12-06T20:33:38.024Z,12.13
2022-12-06T20:36:35.450Z,12.87
2022-12-06T20:39:02.385Z,11.97
2022-12-06T20:41:30.857Z,12.77
2022-12-06T20:43:57.670Z,11.90
2022-12-06T20:46:27.187Z,13.17
2022-12-06T20:48:54.922Z,12.50
2022-12-06T20:51:26.452Z,13.53
2022-12-06T20:53:54.443Z,12.53
2022-12-06T20:56:22.247Z,13.27
2022-12-06T20:58:53.148Z,13.17
2022-12-06T21:01:21.957Z,13.53
2022-12-06T21:03:49.718Z,14.33
2022-12-06T21:06:17.326Z,12.63
2022-12-06T21:08:44.591Z,13.97
2022-12-06T21:11:22.540Z,13.30
2022-12-06T21:13:53.095Z,13.10
2022-12-06T21:16:22.670Z,14.17
2022-12-06T21:18:54.773Z,14.93
2022-12-06T21:21:26.821Z,13.87
2022-12-06T21:23:53.435Z,13.60
2022-12-06T21:26:20.090Z,15.90
2022-12-06T21:28:46.854Z,14.43
2022-12-06T21:31:13.616Z,14.37
2022-12-06T21:33:40.363Z,14.23
2022-12-06T21:36:07.239Z,15.07
2022-12-06T21:38:34.538Z,16.10
2022-12-06T21:41:09.304Z,15.60
2022-12-06T21:43:36.293Z,14.30
2022-12-06T21:46:07.275Z,14.83
2022-12-06T21:48:33.888Z,14.77
2022-12-06T21:51:06.045Z,14.60
2022-12-06T21:53:33.250Z,15.37
2022-12-06T21:56:00.317Z,15.07
2022-12-06T21:58:27.016Z,15.27
2022-12-06T22:00:53.616Z,15.00
2022-12-06T22:03:23.219Z,14.87
2022-12-06T22:05:50.182Z,15.60
2022-12-06T22:08:16.776Z,15.90
2022-12-06T22:10:43.476Z,17.20
2022-12-06T22:13:10.143Z,15.00
2022-12-06T22:15:37.279Z,15.43
2022-12-06T22:18:04.218Z,15.10
2022-12-06T22:20:30.892Z,15.00
2022-12-06T22:22:57.587Z,17.47
2022-12-06T22:25:24.217Z,17.00
2022-12-06T22:27:52.703Z,16.97
2022-12-06T22:30:19.306Z,17.90
2022-12-06T22:32:45.923Z,15.43
2022-12-06T22:35:12.612Z,16.87
2022-12-06T22:37:39.198Z,16.50
2022-12-06T22:40:06.594Z,15.87
2022-12-06T22:42:33.176Z,17.20
2022-12-06T22:44:59.827Z,16.53
2022-12-06T22:47:26.473Z,17.27
2022-12-06T22:49:53.252Z,16.70
2022-12-06T22:52:19.858Z,16.10
2022-12-06T22:54:46.507Z,15.80
2022-12-06T22:57:13.193Z,15.70
2022-12-06T22:59:39.833Z,15.33
2022-12-06T23:02:06.505Z,14.97
2022-12-06T23:04:33.256Z,15.50
2022-12-06T23:06:59.894Z,15.33
2022-12-06T23:09:26.554Z,14.57
2022-12-06T23:11:53.276Z,15.10
2022-12-06T23:14:19.865Z,16.13
2022-12-06T23:16:46.552Z,14.80
2022-12-06T23:19:13.245Z,15.27
2022-12-06T23:21:40.911Z,15.83
2022-12-06T23:24:09.796Z,14.40
2022-12-06T23:26:41.652Z,15.67
2022-12-06T23:29:08.558Z,17.07
2022-12-06T23:31:37.684Z,15.90
2022-12-06T23:34:11.811Z,17.23
2022-12-06T23:36:38.571Z,14.90
2022-12-06T23:39:05.720Z,16.60
2022-12-06T23:41:33.155Z,16.07
2022-12-06T23:44:00.000Z,15.43
2022-12-06T23:46:32.424Z,16.40
2022-12-06T23:48:59.316Z,15.97
2022-12-06T23:51:30.710Z,15.67
2022-12-06T23:53:58.920Z,15.80
2022-12-06T23:56:28.311Z,14.93
2022-12-06T23:58:55.151Z,14.97
